createdAt,value
2018-03-23T00:00:14.114Z,83.36
2018-03-23T00:01:14.342Z,83.65
2018-03-23T00:02:14.564Z,84.03
2018-03-23T00:03:14.788Z,84.31
2018-03-23T00:04:15.013Z,84.08
2018-03-23T00:05:15.241Z,84.31
2018-03-23T00:06:15.465Z,84.08
2018-03-23T00:07:15.691Z,84.36
2018-03-23T00:08:15.914Z,84.36
2018-03-23T00:09:16.139Z,84.84
2018-03-23T00:10:16.366Z,85.13
2018-03-23T00:11:16.627Z,85.69
2018-03-23T00:12:16.852Z,85.03
2018-03-23T00:13:17.078Z,84.65
2018-03-23T00:14:17.302Z,86.45
2018-03-23T00:15:17.530Z,85.78
2018-03-23T00:16:17.752Z,85.50
2018-03-23T00:17:17.977Z,86.16
2018-03-23T00:18:18.207Z,86.55
2018-03-23T00:19:18.432Z,85.97
2018-03-23T00:20:18.657Z,85.88
2018-03-23T00:21:18.881Z,84.94
2018-03-23T00:22:19.112Z,85.13
2018-03-23T00:23:19.334Z,85.03
2018-03-23T00:24:19.566Z,85.88
2018-03-23T00:25:19.785Z,85.60
2018-03-23T00:26:20.015Z,86.45
2018-03-23T00:27:20.239Z,85.78
2018-03-23T00:28:20.469Z,85.69
2018-03-23T00:29:20.692Z,85.97
2018-03-23T00:30:20.918Z,86.55
2018-03-23T00:31:21.140Z,86.16
2018-03-23T00:32:21.394Z,86.64
2018-03-23T00:33:21.624Z,85.78
2018-03-23T00:34:21.849Z,85.88
2018-03-23T00:35:22.073Z,85.07
2018-03-23T00:36:22.298Z,85.17
2018-03-23T00:37:22.526Z,85.31
2018-03-23T00:38:22.754Z,85.31
2018-03-23T00:39:22.975Z,85.03
2018-03-23T00:40:23.198Z,84.94
2018-03-23T00:41:23.423Z,85.41
2018-03-23T00:42:23.651Z,84.78
2018-03-23T00:43:23.880Z,84.31
2018-03-23T00:44:24.101Z,84.69
2018-03-23T00:45:24.321Z,84.94
2018-03-23T00:46:24.538Z,85.22
2018-03-23T00:47:24.810Z,85.78
2018-03-23T00:48:24.982Z,85.88
2018-03-23T00:49:25.206Z,85.03
2018-03-23T00:50:25.433Z,85.07
2018-03-23T00:51:25.655Z,85.31
2018-03-23T00:52:25.890Z,84.84
2018-03-23T00:53:26.105Z,85.36
2018-03-23T00:54:26.331Z,85.07
2018-03-23T00:55:26.565Z,85.03
2018-03-23T00:56:26.779Z,85.13
2018-03-23T00:57:27.015Z,84.65
2018-03-23T00:58:27.240Z,84.94
2018-03-23T00:59:27.464Z,85.88
2018-03-23T01:00:27.682Z,86.16
2018-03-23T01:01:27.913Z,85.88
2018-03-23T01:02:28.136Z,84.69
2018-03-23T01:03:28.367Z,84.50
2018-03-23T01:04:28.590Z,84.50
2018-03-23T01:05:28.814Z,84.31
2018-03-23T01:06:29.056Z,84.22
2018-03-23T01:07:29.260Z,83.84
2018-03-23T01:08:29.484Z,83.84
2018-03-23T01:09:29.702Z,84.17
2018-03-23T01:10:29.933Z,84.65
2018-03-23T01:11:30.144Z,84.31
2018-03-23T01:12:30.374Z,84.27
2018-03-23T01:13:30.603Z,84.31
2018-03-23T01:14:30.822Z,84.50
2018-03-23T01:15:31.045Z,84.31
2018-03-23T01:16:31.267Z,83.84
2018-03-23T01:17:31.492Z,83.46
2018-03-23T01:18:31.767Z,83.65
2018-03-23T01:19:31.995Z,83.36
2018-03-23T01:20:32.227Z,83.08
2018-03-23T01:21:32.449Z,83.84
2018-03-23T01:22:32.671Z,83.74
2018-03-23T01:23:32.902Z,84.03
2018-03-23T01:24:33.124Z,83.94
2018-03-23T01:25:33.351Z,83.65
2018-03-23T01:26:33.576Z,84.03
2018-03-23T01:27:33.799Z,83.94
2018-03-23T01:28:34.024Z,84.46
2018-03-23T01:29:34.248Z,84.46
2018-03-23T01:30:34.479Z,84.69
2018-03-23T01:31:34.698Z,84.31
2018-03-23T01:32:34.923Z,84.12
2018-03-23T01:33:35.148Z,85.13
2018-03-23T01:34:35.373Z,85.78
2018-03-23T01:35:35.598Z,85.03
2018-03-23T01:36:35.890Z,84.78
2018-03-23T01:37:36.049Z,85.03
2018-03-23T01:38:36.276Z,86.16
2018-03-23T01:39:36.499Z,86.16
2018-03-23T01:40:36.723Z,85.60
2018-03-23T01:41:36.949Z,85.64
2018-03-23T01:42:37.173Z,85.69
2018-03-23T01:43:37.395Z,85.97
2018-03-23T01:44:37.620Z,85.13
2018-03-23T01:45:37.845Z,85.13
2018-03-23T01:46:38.068Z,84.74
2018-03-23T01:47:38.307Z,84.98
2018-03-23T01:48:38.520Z,84.69
2018-03-23T01:49:38.744Z,84.12
2018-03-23T01:50:38.966Z,83.74
2018-03-23T01:51:39.203Z,83.94
2018-03-23T01:52:39.415Z,83.65
2018-03-23T01:53:39.646Z,84.31
2018-03-23T01:54:39.866Z,83.74
2018-03-23T01:55:40.090Z,84.03
2018-03-23T01:56:40.314Z,84.59
2018-03-23T01:57:40.535Z,84.12
2018-03-23T01:58:40.758Z,83.74
2018-03-23T01:59:40.987Z,83.36
2018-03-23T02:00:41.210Z,82.79
2018-03-23T02:01:41.434Z,82.98
2018-03-23T02:02:41.659Z,83.55
2018-03-23T02:03:41.883Z,82.98
2018-03-23T02:04:42.106Z,83.27
2018-03-23T02:05:42.327Z,82.70
2018-03-23T02:06:42.556Z,82.98
2018-03-23T02:07:42.780Z,82.89
2018-03-23T02:08:43.005Z,83.08
2018-03-23T02:09:43.229Z,82.60
2018-03-23T02:10:43.454Z,82.70
2018-03-23T02:11:43.674Z,83.17
2018-03-23T02:12:43.890Z,83.08
2018-03-23T02:13:44.118Z,82.89
2018-03-23T02:14:44.339Z,83.27
2018-03-23T02:15:44.558Z,83.46
2018-03-23T02:16:44.787Z,83.94
2018-03-23T02:17:45.013Z,84.59
2018-03-23T02:18:45.241Z,84.59
2018-03-23T02:19:45.473Z,85.07
2018-03-23T02:20:45.693Z,84.69
2018-03-23T02:21:45.920Z,84.22
2018-03-23T02:22:46.141Z,84.03
2018-03-23T02:23:46.368Z,83.84
2018-03-23T02:24:46.591Z,83.94
2018-03-23T02:25:46.812Z,83.08
2018-03-23T02:26:47.055Z,83.27
2018-03-23T02:27:47.266Z,83.36
2018-03-23T02:28:47.485Z,82.70
2018-03-23T02:29:47.712Z,83.08
2018-03-23T02:30:47.931Z,82.89
2018-03-23T02:31:48.157Z,83.94
2018-03-23T02:32:48.381Z,83.55
2018-03-23T02:33:48.606Z,83.65
2018-03-23T02:34:48.841Z,84.22
2018-03-23T02:35:49.056Z,84.84
2018-03-23T02:36:49.278Z,85.07
2018-03-23T02:37:49.498Z,86.07
2018-03-23T02:38:49.722Z,86.64
2018-03-23T02:39:49.945Z,87.02
2018-03-23T02:40:50.170Z,87.30
2018-03-23T02:41:50.403Z,86.74
2018-03-23T02:42:50.615Z,86.93
2018-03-23T02:43:50.853Z,86.64
2018-03-23T02:44:51.071Z,85.74
2018-03-23T02:45:51.297Z,84.98
2018-03-23T02:46:51.515Z,84.98
2018-03-23T02:47:51.741Z,85.93
2018-03-23T02:48:51.965Z,85.74
2018-03-23T02:49:52.191Z,85.17
2018-03-23T02:50:52.426Z,85.13
2018-03-23T02:51:52.642Z,84.88
2018-03-23T02:52:52.862Z,84.69
2018-03-23T02:53:53.090Z,84.59
2018-03-23T02:54:53.309Z,84.50
2018-03-23T02:55:53.533Z,84.22
2018-03-23T02:56:53.767Z,84.12
2018-03-23T02:57:53.988Z,83.84
2018-03-23T02:58:54.201Z,83.74
2018-03-23T02:59:54.429Z,84.12
2018-03-23T03:00:54.654Z,83.84
2018-03-23T03:01:54.880Z,83.84
2018-03-23T03:02:55.100Z,83.94
2018-03-23T03:03:55.328Z,84.22
2018-03-23T03:04:55.548Z,84.78
2018-03-23T03:05:55.774Z,84.59
2018-03-23T03:06:56.003Z,84.78
2018-03-23T03:07:56.224Z,84.69
2018-03-23T03:08:56.448Z,84.31
2018-03-23T03:09:56.671Z,84.50
2018-03-23T03:10:56.891Z,83.84
2018-03-23T03:11:57.125Z,83.84
2018-03-23T03:12:57.346Z,83.08
2018-03-23T03:13:57.568Z,84.59
2018-03-23T03:14:57.795Z,84.59
2018-03-23T03:15:58.019Z,84.78
2018-03-23T03:16:58.244Z,84.12
2018-03-23T03:17:58.469Z,83.94
2018-03-23T03:18:58.698Z,83.94
2018-03-23T03:19:58.940Z,83.55
2018-03-23T03:20:59.141Z,83.84
2018-03-23T03:21:59.370Z,84.22
2018-03-23T03:22:59.592Z,84.03
2018-03-23T03:23:59.815Z,84.22
2018-03-23T03:25:00.040Z,84.41
2018-03-23T03:26:00.267Z,84.88
2018-03-23T03:27:00.491Z,85.17
2018-03-23T03:28:00.716Z,85.36
2018-03-23T03:29:00.942Z,86.02
2018-03-23T03:30:01.166Z,85.64
2018-03-23T03:31:01.395Z,85.17
2018-03-23T03:32:01.625Z,85.26
2018-03-23T03:33:01.839Z,84.98
2018-03-23T03:34:02.068Z,84.69
2018-03-23T03:35:02.283Z,84.50
2018-03-23T03:36:02.509Z,84.31
2018-03-23T03:37:02.736Z,84.03
2018-03-23T03:38:02.962Z,84.31
2018-03-23T03:39:03.183Z,83.65
2018-03-23T03:40:03.409Z,83.17
2018-03-23T03:41:03.632Z,83.36
2018-03-23T03:42:03.857Z,82.89
2018-03-23T03:43:04.085Z,82.70
2018-03-23T03:44:04.318Z,83.84
2018-03-23T03:45:04.532Z,83.84
2018-03-23T03:46:04.757Z,83.46
2018-03-23T03:47:04.984Z,83.36
2018-03-23T03:48:05.212Z,83.55
2018-03-23T03:49:05.435Z,83.84
2018-03-23T03:50:05.660Z,84.22
2018-03-23T03:51:05.889Z,84.50
2018-03-23T03:52:06.112Z,85.45
2018-03-23T03:53:06.339Z,85.17
2018-03-23T03:54:06.559Z,85.17
2018-03-23T03:55:06.784Z,85.07
2018-03-23T03:56:07.011Z,84.98
2018-03-23T03:57:07.244Z,85.17
2018-03-23T03:58:07.467Z,84.59
2018-03-23T03:59:07.689Z,84.12
2018-03-23T04:00:07.915Z,84.59
2018-03-23T04:01:08.138Z,85.07
2018-03-23T04:02:08.364Z,85.13
2018-03-23T04:03:08.589Z,85.13
2018-03-23T04:04:08.817Z,85.13
2018-03-23T04:05:09.051Z,84.84
2018-03-23T04:06:09.260Z,84.74
2018-03-23T04:07:09.480Z,85.17
2018-03-23T04:08:09.703Z,84.98
2018-03-23T04:09:09.928Z,84.41
2018-03-23T04:10:10.149Z,84.31
2018-03-23T04:11:10.376Z,84.31
2018-03-23T04:12:10.597Z,83.55
2018-03-23T04:13:10.822Z,83.74
2018-03-23T04:14:11.046Z,83.65
2018-03-23T04:15:11.272Z,83.36
2018-03-23T04:16:11.497Z,83.84
2018-03-23T04:17:11.722Z,83.65
2018-03-23T04:18:11.945Z,84.03
2018-03-23T04:19:12.174Z,83.84
2018-03-23T04:20:12.395Z,84.03
2018-03-23T04:21:12.618Z,83.94
2018-03-23T04:22:12.845Z,83.46
2018-03-23T04:23:13.068Z,83.27
2018-03-23T04:24:13.291Z,83.84
2018-03-23T04:25:13.526Z,84.12
2018-03-23T04:26:13.742Z,83.94
2018-03-23T04:27:13.966Z,84.12
2018-03-23T04:28:14.188Z,84.31
2018-03-23T04:29:14.412Z,84.22
2018-03-23T04:30:14.633Z,84.69
2018-03-23T04:31:14.858Z,85.07
2018-03-23T04:32:15.080Z,85.07
2018-03-23T04:33:15.308Z,84.78
2018-03-23T04:34:15.542Z,84.50
2018-03-23T04:35:15.761Z,84.59
2018-03-23T04:36:15.983Z,84.12
2018-03-23T04:37:16.206Z,84.94
2018-03-23T04:38:16.440Z,85.13
2018-03-23T04:39:16.654Z,86.16
2018-03-23T04:40:16.876Z,86.55
2018-03-23T04:41:17.101Z,86.74
2018-03-23T04:42:17.326Z,86.26
2018-03-23T04:43:17.548Z,85.97
2018-03-23T04:44:17.775Z,84.69
2018-03-23T04:45:17.994Z,85.03
2018-03-23T04:46:18.216Z,85.17
2018-03-23T04:47:18.452Z,85.17
2018-03-23T04:48:18.672Z,85.88
2018-03-23T04:49:18.905Z,86.64
2018-03-23T04:50:19.124Z,86.26
2018-03-23T04:51:19.349Z,86.35
2018-03-23T04:52:19.570Z,86.74
2018-03-23T04:53:19.796Z,86.74
2018-03-23T04:54:20.023Z,87.02
2018-03-23T04:55:20.248Z,86.93
2018-03-23T04:56:20.473Z,87.02
2018-03-23T04:57:20.697Z,86.64
2018-03-23T04:58:20.930Z,87.12
2018-03-23T04:59:21.164Z,87.30
2018-03-23T05:00:21.376Z,86.93
2018-03-23T05:01:21.596Z,86.74
2018-03-23T05:02:21.830Z,87.12
2018-03-23T05:03:22.052Z,87.40
2018-03-23T05:04:22.284Z,86.74
2018-03-23T05:05:22.500Z,87.49
2018-03-23T05:06:22.725Z,87.49
2018-03-23T05:07:22.960Z,87.02
2018-03-23T05:08:23.179Z,87.30
2018-03-23T05:09:23.405Z,86.64
2018-03-23T05:10:23.633Z,86.35
2018-03-23T05:11:23.898Z,86.16
2018-03-23T05:12:24.122Z,86.11
2018-03-23T05:13:24.342Z,85.17
2018-03-23T05:14:24.577Z,84.98
2018-03-23T05:15:24.794Z,84.88
2018-03-23T05:16:25.019Z,84.88
2018-03-23T05:17:25.241Z,84.50
2018-03-23T05:18:25.464Z,83.84
2018-03-23T05:19:25.695Z,84.03
2018-03-23T05:20:25.911Z,84.31
2018-03-23T05:21:26.135Z,83.74
2018-03-23T05:22:26.364Z,84.22
2018-03-23T05:23:26.590Z,83.74
2018-03-23T05:24:26.811Z,83.36
2018-03-23T05:25:27.079Z,83.55
2018-03-23T05:26:27.262Z,83.94
2018-03-23T05:27:27.486Z,83.84
2018-03-23T05:28:27.712Z,84.31
2018-03-23T05:29:27.938Z,84.31
2018-03-23T05:30:28.167Z,83.94
2018-03-23T05:31:28.386Z,84.41
2018-03-23T05:32:28.612Z,83.94
2018-03-23T05:33:28.836Z,83.84
2018-03-23T05:34:29.063Z,84.12
2018-03-23T05:35:29.286Z,83.65
2018-03-23T05:36:29.517Z,84.31
2018-03-23T05:37:29.741Z,83.84
2018-03-23T05:38:29.965Z,84.31
2018-03-23T05:39:30.223Z,83.84
2018-03-23T05:40:30.412Z,84.22
2018-03-23T05:41:30.636Z,83.84
2018-03-23T05:42:30.861Z,83.94
2018-03-23T05:43:31.093Z,83.36
2018-03-23T05:44:31.313Z,83.46
2018-03-23T05:45:31.541Z,83.74
2018-03-23T05:46:31.760Z,84.03
2018-03-23T05:47:31.988Z,83.94
2018-03-23T05:48:32.212Z,83.74
2018-03-23T05:49:32.436Z,84.31
2018-03-23T05:50:32.669Z,83.94
2018-03-23T05:51:32.930Z,83.84
2018-03-23T05:52:33.116Z,84.50
2018-03-23T05:53:33.338Z,84.50
2018-03-23T05:54:33.564Z,84.31
2018-03-23T05:55:33.790Z,84.03
2018-03-23T05:56:34.028Z,83.36
2018-03-23T05:57:34.229Z,83.27
2018-03-23T05:58:34.455Z,83.46
2018-03-23T05:59:34.674Z,83.46
2018-03-23T06:00:34.892Z,83.84
2018-03-23T06:01:35.118Z,83.46
2018-03-23T06:02:35.338Z,83.84
2018-03-23T06:03:35.570Z,83.17
2018-03-23T06:04:35.793Z,82.51
2018-03-23T06:05:36.024Z,83.17
2018-03-23T06:06:36.239Z,82.98
2018-03-23T06:07:36.463Z,82.98
2018-03-23T06:08:36.690Z,82.98
2018-03-23T06:09:36.919Z,82.32
2018-03-23T06:10:37.145Z,82.79
2018-03-23T06:11:37.364Z,82.79
2018-03-23T06:12:37.599Z,82.42
2018-03-23T06:13:37.825Z,82.70
2018-03-23T06:14:38.052Z,82.70
2018-03-23T06:15:38.279Z,82.27
2018-03-23T06:16:38.504Z,82.51
2018-03-23T06:17:38.730Z,82.46
2018-03-23T06:18:38.955Z,82.08
2018-03-23T06:19:39.183Z,81.32
2018-03-23T06:20:39.424Z,81.70
2018-03-23T06:21:39.652Z,81.70
2018-03-23T06:22:39.881Z,81.41
2018-03-23T06:23:40.101Z,81.98
2018-03-23T06:24:40.325Z,81.98
2018-03-23T06:25:40.551Z,82.60
2018-03-23T06:26:40.777Z,82.36
2018-03-23T06:27:41.002Z,81.70
2018-03-23T06:28:41.231Z,82.27
2018-03-23T06:29:41.450Z,82.08
2018-03-23T06:30:41.677Z,82.17
2018-03-23T06:31:41.902Z,81.79
2018-03-23T06:32:42.129Z,81.51
2018-03-23T06:33:42.355Z,81.70
2018-03-23T06:34:42.579Z,81.32
2018-03-23T06:35:42.810Z,81.60
2018-03-23T06:36:43.035Z,81.60
2018-03-23T06:37:43.253Z,80.84
2018-03-23T06:38:43.488Z,81.79
2018-03-23T06:39:43.709Z,81.32
2018-03-23T06:40:43.933Z,81.23
2018-03-23T06:41:44.156Z,81.51
2018-03-23T06:42:44.386Z,81.32
2018-03-23T06:43:44.615Z,82.08
2018-03-23T06:44:44.844Z,81.70
2018-03-23T06:45:45.066Z,82.27
2018-03-23T06:46:45.287Z,81.79
2018-03-23T06:47:45.518Z,81.60
2018-03-23T06:48:45.740Z,81.79
2018-03-23T06:49:45.965Z,81.98
2018-03-23T06:50:46.192Z,82.84
2018-03-23T06:51:46.422Z,83.50
2018-03-23T06:52:46.654Z,83.36
2018-03-23T06:53:46.878Z,83.40
2018-03-23T06:54:47.103Z,83.78
2018-03-23T06:55:47.332Z,84.31
2018-03-23T06:56:47.558Z,84.50
2018-03-23T06:57:47.784Z,83.94
2018-03-23T06:58:48.001Z,84.69
2018-03-23T06:59:48.227Z,83.78
2018-03-23T07:00:48.455Z,84.36
2018-03-23T07:01:48.698Z,84.45
2018-03-23T07:02:48.906Z,84.36
2018-03-23T07:03:49.134Z,83.88
2018-03-23T07:04:49.358Z,83.88
2018-03-23T07:05:49.587Z,82.93
2018-03-23T07:06:49.812Z,82.46
2018-03-23T07:07:50.036Z,82.93
2018-03-23T07:08:50.262Z,82.65
2018-03-23T07:09:50.486Z,83.22
2018-03-23T07:10:50.709Z,83.50
2018-03-23T07:11:50.937Z,84.17
2018-03-23T07:12:51.166Z,84.17
2018-03-23T07:13:51.388Z,84.26
2018-03-23T07:14:51.614Z,84.26
2018-03-23T07:15:51.835Z,83.88
2018-03-23T07:16:52.060Z,84.17
2018-03-23T07:17:52.288Z,83.88
2018-03-23T07:18:52.513Z,83.88
2018-03-23T07:19:52.734Z,83.78
2018-03-23T07:20:52.957Z,83.40
2018-03-23T07:21:53.186Z,83.22
2018-03-23T07:22:53.407Z,83.59
2018-03-23T07:23:53.632Z,83.69
2018-03-23T07:24:53.857Z,83.59
2018-03-23T07:25:54.078Z,83.69
2018-03-23T07:26:54.303Z,83.92
2018-03-23T07:27:54.550Z,82.97
2018-03-23T07:28:54.764Z,82.78
2018-03-23T07:29:54.979Z,82.59
2018-03-23T07:30:55.204Z,82.40
2018-03-23T07:31:55.433Z,81.84
2018-03-23T07:32:55.669Z,81.26
2018-03-23T07:33:55.888Z,80.41
2018-03-23T07:34:56.114Z,80.22
2018-03-23T07:35:56.341Z,79.74
2018-03-23T07:36:56.566Z,79.36
2018-03-23T07:37:56.793Z,79.36
2018-03-23T07:38:57.016Z,79.41
2018-03-23T07:39:57.247Z,79.31
2018-03-23T07:40:57.464Z,79.22
2018-03-23T07:41:57.768Z,79.03
2018-03-23T07:42:57.909Z,79.41
2018-03-23T07:43:58.135Z,80.07
2018-03-23T07:44:58.364Z,79.79
2018-03-23T07:45:58.592Z,79.69
2018-03-23T07:46:58.817Z,79.65
2018-03-23T07:47:59.041Z,80.32
2018-03-23T07:48:59.268Z,81.45
2018-03-23T07:49:59.496Z,82.03
2018-03-23T07:50:59.722Z,82.21
2018-03-23T07:51:59.950Z,81.26
2018-03-23T07:53:00.176Z,81.55
2018-03-23T07:54:00.403Z,81.17
2018-03-23T07:55:00.633Z,80.69
2018-03-23T07:56:00.856Z,80.79
2018-03-23T07:57:01.091Z,81.84
2018-03-23T07:58:01.308Z,82.50
2018-03-23T07:59:01.533Z,82.31
2018-03-23T08:00:01.760Z,82.59
2018-03-23T08:01:01.984Z,81.84
2018-03-23T08:02:02.207Z,81.45
2018-03-23T08:03:02.438Z,81.45
2018-03-23T08:04:02.659Z,81.55
2018-03-23T08:05:02.886Z,80.69
2018-03-23T08:06:03.110Z,81.36
2018-03-23T08:07:03.387Z,80.88
2018-03-23T08:08:03.564Z,81.21
2018-03-23T08:09:03.792Z,80.55
2018-03-23T08:10:04.019Z,80.55
2018-03-23T08:11:04.245Z,80.55
2018-03-23T08:12:04.471Z,80.55
2018-03-23T08:13:04.698Z,80.83
2018-03-23T08:14:04.930Z,81.40
2018-03-23T08:15:05.152Z,81.55
2018-03-23T08:16:05.375Z,81.74
2018-03-23T08:17:05.601Z,82.21
2018-03-23T08:18:05.827Z,82.45
2018-03-23T08:19:06.054Z,82.03
2018-03-23T08:20:06.277Z,82.59
2018-03-23T08:21:06.504Z,83.01
2018-03-23T08:22:06.732Z,83.07
2018-03-23T08:23:06.961Z,83.64
2018-03-23T08:24:07.187Z,83.20
2018-03-23T08:25:07.414Z,82.45
2018-03-23T08:26:07.643Z,81.78
2018-03-23T08:27:07.868Z,81.59
2018-03-23T08:28:08.099Z,81.16
2018-03-23T08:29:08.324Z,80.49
2018-03-23T08:30:08.548Z,80.21
2018-03-23T08:31:08.834Z,79.83
2018-03-23T08:32:09.026Z,78.97
2018-03-23T08:33:09.254Z,79.25
2018-03-23T08:34:09.481Z,79.06
2018-03-23T08:35:09.710Z,79.06
2018-03-23T08:36:09.940Z,79.06
2018-03-23T08:37:10.165Z,80.11
2018-03-23T08:38:10.492Z,79.25
2018-03-23T08:39:10.649Z,79.54
2018-03-23T08:40:10.881Z,78.97
2018-03-23T08:41:11.107Z,79.35
2018-03-23T08:42:11.330Z,79.73
2018-03-23T08:43:11.560Z,80.34
2018-03-23T08:44:11.848Z,79.01
2018-03-23T08:45:12.050Z,78.25
2018-03-23T08:46:12.274Z,77.92
2018-03-23T08:47:12.504Z,77.97
2018-03-23T08:48:12.726Z,77.39
2018-03-23T08:49:12.958Z,77.83
2018-03-23T08:50:13.177Z,78.21
2018-03-23T08:51:13.412Z,78.82
2018-03-23T08:52:13.631Z,78.34
2018-03-23T08:53:13.857Z,77.77
2018-03-23T08:54:14.084Z,77.39
2018-03-23T08:55:14.308Z,76.82
2018-03-23T08:56:14.534Z,76.44
2018-03-23T08:57:14.763Z,76.44
2018-03-23T08:58:14.987Z,76.25
2018-03-23T08:59:15.218Z,77.01
2018-03-23T09:00:15.445Z,77.01
2018-03-23T09:01:15.672Z,77.11
2018-03-23T09:02:15.902Z,77.20
2018-03-23T09:03:16.128Z,77.11
2018-03-23T09:04:16.356Z,76.92
2018-03-23T09:05:16.579Z,76.76
2018-03-23T09:06:16.811Z,75.34
2018-03-23T09:07:17.039Z,74.87
2018-03-23T09:08:17.269Z,74.48
2018-03-23T09:09:17.490Z,73.91
2018-03-23T09:10:17.712Z,73.44
2018-03-23T09:11:17.939Z,73.25
2018-03-23T09:12:18.168Z,73.06
2018-03-23T09:13:18.395Z,72.96
2018-03-23T09:14:18.626Z,73.38
2018-03-23T09:15:18.854Z,72.90
2018-03-23T09:16:19.075Z,72.42
2018-03-23T09:17:19.301Z,73.28
2018-03-23T09:18:19.528Z,72.24
2018-03-23T09:19:19.755Z,72.52
2018-03-23T09:20:19.980Z,72.33
2018-03-23T09:21:20.210Z,72.62
2018-03-23T09:22:20.438Z,72.14
2018-03-23T09:23:20.665Z,72.42
2018-03-23T09:24:20.886Z,72.52
2018-03-23T09:25:21.118Z,72.05
2018-03-23T09:26:21.341Z,71.57
2018-03-23T09:27:21.567Z,71.00
2018-03-23T09:28:21.799Z,71.42
2018-03-23T09:29:22.024Z,71.32
2018-03-23T09:30:22.250Z,71.13
2018-03-23T09:31:22.477Z,70.56
2018-03-23T09:32:22.701Z,70.37
2018-03-23T09:33:22.930Z,70.37
2018-03-23T09:34:23.158Z,71.51
2018-03-23T09:35:23.385Z,71.32
2018-03-23T09:36:23.613Z,71.42
2018-03-23T09:37:23.838Z,70.84
2018-03-23T09:38:24.065Z,71.22
2018-03-23T09:39:24.293Z,70.69
2018-03-23T09:40:24.522Z,70.02
2018-03-23T09:41:24.749Z,69.93
2018-03-23T09:42:24.978Z,69.83
2018-03-23T09:43:25.207Z,70.12
2018-03-23T09:44:25.432Z,69.45
2018-03-23T09:45:25.657Z,68.98
2018-03-23T09:46:25.883Z,68.40
2018-03-23T09:47:26.106Z,68.50
2018-03-23T09:48:26.334Z,68.88
2018-03-23T09:49:26.569Z,68.21
2018-03-23T09:50:26.856Z,67.93
2018-03-23T09:51:27.023Z,67.64
2018-03-23T09:52:27.251Z,68.12
2018-03-23T09:53:27.480Z,67.58
2018-03-23T09:54:27.705Z,67.93
2018-03-23T09:55:27.930Z,67.96
2018-03-23T09:56:28.156Z,67.96
2018-03-23T09:57:28.383Z,67.68
2018-03-23T09:58:28.611Z,67.39
2018-03-23T09:59:28.841Z,67.39
2018-03-23T10:00:29.067Z,67.58
2018-03-23T10:01:29.290Z,67.77
2018-03-23T10:02:29.523Z,67.29
2018-03-23T10:03:29.760Z,67.86
2018-03-23T10:04:29.990Z,68.15
2018-03-23T10:05:30.231Z,67.86
2018-03-23T10:06:30.439Z,67.39
2018-03-23T10:07:30.662Z,67.00
2018-03-23T10:08:30.896Z,67.10
2018-03-23T10:09:31.119Z,67.48
2018-03-23T10:10:31.349Z,67.48
2018-03-23T10:11:31.572Z,66.91
2018-03-23T10:12:31.800Z,66.75
2018-03-23T10:13:32.029Z,66.38
2018-03-23T10:14:32.257Z,66.18
2018-03-23T10:15:32.487Z,66.28
2018-03-23T10:16:32.714Z,65.52
2018-03-23T10:17:32.940Z,66.09
2018-03-23T10:18:33.169Z,65.23
2018-03-23T10:19:33.394Z,65.70
2018-03-23T10:20:33.621Z,65.52
2018-03-23T10:21:33.849Z,65.23
2018-03-23T10:22:34.080Z,65.70
2018-03-23T10:23:34.312Z,65.42
2018-03-23T10:24:34.537Z,64.78
2018-03-23T10:25:34.765Z,64.59
2018-03-23T10:26:34.989Z,63.73
2018-03-23T10:27:35.218Z,63.45
2018-03-23T10:28:35.495Z,63.83
2018-03-23T10:29:35.679Z,63.73
2018-03-23T10:30:35.907Z,63.64
2018-03-23T10:31:36.138Z,63.35
2018-03-23T10:32:36.367Z,63.83
2018-03-23T10:33:36.596Z,63.73
2018-03-23T10:34:36.831Z,62.88
2018-03-23T10:35:37.060Z,62.68
2018-03-23T10:36:37.288Z,62.78
2018-03-23T10:37:37.513Z,62.11
2018-03-23T10:38:37.738Z,62.88
2018-03-23T10:39:37.974Z,62.97
2018-03-23T10:40:38.195Z,62.88
2018-03-23T10:41:38.440Z,62.68
2018-03-23T10:42:38.665Z,62.78
2018-03-23T10:43:38.891Z,62.78
2018-03-23T10:44:39.120Z,62.30
2018-03-23T10:45:39.349Z,62.40
2018-03-23T10:46:39.618Z,62.78
2018-03-23T10:47:39.803Z,62.88
2018-03-23T10:48:40.031Z,63.16
2018-03-23T10:49:40.264Z,62.21
2018-03-23T10:50:40.498Z,62.11
2018-03-23T10:51:40.722Z,62.02
2018-03-23T10:52:40.958Z,61.83
2018-03-23T10:53:41.194Z,62.34
2018-03-23T10:54:41.407Z,61.76
2018-03-23T10:55:41.637Z,61.57
2018-03-23T10:56:41.865Z,62.43
2018-03-23T10:57:42.093Z,61.86
2018-03-23T10:58:42.321Z,62.15
2018-03-23T10:59:42.545Z,61.47
2018-03-23T11:00:42.766Z,61.57
2018-03-23T11:01:42.988Z,62.43
2018-03-23T11:02:43.216Z,61.38
2018-03-23T11:03:43.447Z,61.19
2018-03-23T11:04:43.677Z,61.38
2018-03-23T11:05:43.907Z,61.66
2018-03-23T11:06:44.133Z,61.86
2018-03-23T11:07:44.362Z,62.52
2018-03-23T11:08:44.593Z,62.21
2018-03-23T11:09:44.816Z,61.16
2018-03-23T11:10:45.044Z,61.83
2018-03-23T11:11:45.281Z,61.44
2018-03-23T11:12:45.501Z,61.63
2018-03-23T11:13:45.734Z,61.92
2018-03-23T11:14:45.961Z,62.30
2018-03-23T11:15:46.191Z,61.54
2018-03-23T11:16:46.426Z,62.11
2018-03-23T11:17:46.648Z,62.21
2018-03-23T11:18:46.876Z,61.63
2018-03-23T11:19:47.107Z,61.63
2018-03-23T11:20:47.341Z,61.54
2018-03-23T11:21:47.571Z,62.68
2018-03-23T11:22:47.797Z,62.68
2018-03-23T11:23:48.030Z,62.21
2018-03-23T11:24:48.259Z,62.40
2018-03-23T11:25:48.491Z,61.54
2018-03-23T11:26:48.726Z,62.40
2018-03-23T11:27:48.953Z,61.54
2018-03-23T11:28:49.180Z,62.40
2018-03-23T11:29:49.409Z,61.63
2018-03-23T11:30:49.638Z,61.63
2018-03-23T11:31:49.871Z,62.40
2018-03-23T11:32:50.100Z,62.68
2018-03-23T11:33:50.332Z,62.40
2018-03-23T11:34:50.557Z,62.65
2018-03-23T11:35:50.784Z,62.56
2018-03-23T11:36:51.013Z,62.37
2018-03-23T11:37:51.241Z,62.18
2018-03-23T11:38:51.471Z,62.84
2018-03-23T11:39:51.701Z,63.13
2018-03-23T11:40:51.928Z,62.84
2018-03-23T11:41:52.159Z,62.65
2018-03-23T11:42:52.401Z,62.75
2018-03-23T11:43:52.628Z,63.70
2018-03-23T11:44:52.852Z,63.42
2018-03-23T11:45:53.084Z,63.42
2018-03-23T11:46:53.312Z,62.46
2018-03-23T11:47:53.542Z,63.04
2018-03-23T11:48:53.769Z,63.80
2018-03-23T11:49:54.002Z,63.32
2018-03-23T11:50:54.279Z,63.23
2018-03-23T11:51:54.482Z,63.70
2018-03-23T11:52:54.713Z,63.23
2018-03-23T11:53:54.939Z,62.94
2018-03-23T11:54:55.172Z,63.60
2018-03-23T11:55:55.402Z,63.42
2018-03-23T11:56:55.636Z,63.51
2018-03-23T11:57:55.863Z,64.56
2018-03-23T11:58:56.088Z,63.99
2018-03-23T11:59:56.317Z,64.09
2018-03-23T12:00:56.550Z,63.80
2018-03-23T12:01:56.792Z,63.42
2018-03-23T12:02:57.005Z,63.80
2018-03-23T12:03:57.238Z,63.60
2018-03-23T12:04:57.463Z,63.42
2018-03-23T12:05:57.690Z,62.94
2018-03-23T12:06:57.922Z,62.27
2018-03-23T12:07:58.160Z,62.18
2018-03-23T12:08:58.385Z,62.37
2018-03-23T12:09:58.618Z,62.46
2018-03-23T12:10:58.847Z,62.56
2018-03-23T12:11:59.076Z,62.37
2018-03-23T12:12:59.304Z,62.27
2018-03-23T12:13:59.532Z,61.99
2018-03-23T12:14:59.763Z,61.73
2018-03-23T12:15:59.991Z,61.92
2018-03-23T12:17:00.219Z,61.63
2018-03-23T12:18:00.447Z,61.35
2018-03-23T12:19:00.676Z,60.68
2018-03-23T12:20:00.905Z,61.25
2018-03-23T12:21:01.130Z,60.39
2018-03-23T12:22:01.358Z,60.87
2018-03-23T12:23:01.591Z,60.78
2018-03-23T12:24:01.818Z,60.11
2018-03-23T12:25:02.053Z,60.78
2018-03-23T12:26:02.288Z,60.39
2018-03-23T12:27:02.529Z,60.30
2018-03-23T12:28:02.759Z,60.30
2018-03-23T12:29:02.987Z,60.30
2018-03-23T12:30:03.228Z,60.58
2018-03-23T12:31:03.466Z,61.07
2018-03-23T12:32:03.724Z,61.44
2018-03-23T12:33:03.931Z,61.25
2018-03-23T12:34:04.159Z,60.21
2018-03-23T12:35:04.425Z,60.68
2018-03-23T12:36:04.674Z,60.21
2018-03-23T12:37:04.939Z,60.11
2018-03-23T12:38:05.179Z,60.46
2018-03-23T12:39:05.416Z,60.36
2018-03-23T12:40:05.694Z,59.79
2018-03-23T12:41:05.882Z,59.89
2018-03-23T12:42:06.107Z,60.84
2018-03-23T12:43:06.360Z,60.75
2018-03-23T12:44:06.704Z,60.65
2018-03-23T12:45:06.811Z,60.75
2018-03-23T12:46:07.043Z,60.46
2018-03-23T12:47:07.274Z,60.36
2018-03-23T12:48:07.498Z,61.32
2018-03-23T12:49:07.729Z,60.84
2018-03-23T12:50:07.986Z,60.55
2018-03-23T12:51:08.188Z,60.75
2018-03-23T12:52:08.416Z,60.27
2018-03-23T12:53:08.664Z,60.08
2018-03-23T12:54:08.892Z,60.27
2018-03-23T12:55:09.122Z,59.99